Nan — V4ND2 — position and weather

sailwx.info

Track history (hours):
 
Tides and Currents Weather Stations Pressure Air Temp Water Temp Dewpoint Dewpoint Depression Visibility Wind Speed Wind Dir Waves Ship Positions

Nan

Last reported at 2018-Mar-14 05:38 UTC. Time now 2018-May-20 15:40 UTC.
Position N 17°53' W 063°25'.
Warning: this ship's position is months out of date.

Length 26 m; draft 9 m.

Type: Tug. MMSI: 341223000.

Date/timePositionNaut miles runAvg speedWind from/ knotsBaromVisibWave heightAir tempDewpointWater temp
2018-Mar-14 05:38N 17°53' W 063°25'2 8.7
2018-Mar-14 05:24N 17°52' W 063°23'4 8.8
2018-Mar-14 04:59N 17°50' W 063°20'5 8.8
2018-Mar-14 04:23N 17°48' W 063°15'3 8.7
2018-Mar-14 04:00N 17°47' W 063°12'5 8.7
2018-Mar-14 03:27N 17°44' W 063°07'4 8.5
2018-Mar-14 02:57N 17°42' W 063°03'4 8.7
2018-Mar-14 02:27N 17°40' W 062°59'15 8.6
2018-Mar-14 00:44N 17°34' W 062°45'2 8.7
2018-Mar-14 00:30N 17°33' W 062°44'21 8.5
2018-Mar-13 22:02N 17°23' W 062°24'1 8.4
2018-Mar-13 21:57N 17°23' W 062°23'4 8.4
2018-Mar-13 21:30N 17°21' W 062°20'4 8.4
2018-Mar-13 21:00N 17°19' W 062°16'4 8.6
2018-Mar-13 20:30N 17°17' W 062°12'4 8.6
2018-Mar-13 20:01N 17°15' W 062°08'4 8.8
2018-Mar-13 19:30N 17°13' W 062°04'4 8.8
2018-Mar-13 19:01N 17°11' W 061°60'4 8.8
2018-Mar-13 18:31N 17°09' W 061°56'4 8.3
2018-Mar-13 18:00N 17°08' W 061°52'1 1.2
2018-Mar-13 17:29N 17°07' W 061°51'0 0.0
2018-Mar-13 17:00N 17°07' W 061°51'0 0.0
2018-Mar-13 16:30N 17°07' W 061°51'0 0.0
2018-Mar-13 16:00N 17°07' W 061°51'0 0.0
2018-Mar-13 15:30N 17°07' W 061°51'0 0.0
2018-Mar-13 15:00N 17°07' W 061°51'0 0.0
2018-Mar-13 14:30N 17°07' W 061°51'0 0.0
2018-Mar-13 14:00N 17°07' W 061°51'0 0.0
2018-Mar-13 13:30N 17°07' W 061°51'0 0.0
2018-Mar-13 13:00N 17°07' W 061°51'0 0.0
2018-Mar-13 12:30N 17°07' W 061°51'0 0.0
2018-Mar-13 12:00N 17°07' W 061°51'0 0.0
2018-Mar-13 11:30N 17°07' W 061°51'0 0.0
2018-Mar-12 19:52N 17°07' W 061°51'0 0.0
2018-Mar-12 19:30N 17°07' W 061°51'0 0.0
2018-Mar-12 19:00N 17°07' W 061°51'0 0.0
2018-Mar-12 18:30N 17°07' W 061°51'0 0.0
2018-Mar-12 18:00N 17°07' W 061°51'0 0.0
2018-Mar-12 17:30N 17°07' W 061°51'0 0.0
2018-Mar-12 17:00N 17°07' W 061°51'0 0.0
2018-Mar-12 16:28N 17°07' W 061°51'0 0.0
2018-Mar-12 16:00N 17°07' W 061°51'0 0.0
2018-Mar-12 15:29N 17°07' W 061°51'0 0.0
2018-Mar-12 15:00N 17°07' W 061°51'0 0.0
2018-Mar-12 14:30N 17°07' W 061°51'0 0.0
2018-Mar-12 14:00N 17°07' W 061°51'0 0.0
2018-Mar-12 13:30N 17°07' W 061°51'0 0.0
2018-Mar-12 13:00N 17°07' W 061°51'0 0.0
2018-Mar-12 12:30N 17°07' W 061°51'1 1.8
2018-Mar-12 12:00N 17°08' W 061°52'1 1.8
2018-Mar-12 11:30N 17°07' W 061°51'0 0.0
2018-Mar-10 15:28N 17°07' W 061°51'0 0.0
2018-Mar-10 15:00N 17°07' W 061°51'0 0.0
2018-Mar-10 14:30N 17°07' W 061°51'0 0.0
2018-Mar-10 14:00N 17°07' W 061°51'0 0.0
2018-Mar-10 13:30N 17°07' W 061°51'0 0.0
2018-Mar-10 13:00N 17°07' W 061°51'0 0.0
2018-Mar-09 20:02N 17°07' W 061°51'0 0.0
2018-Mar-09 20:00N 17°07' W 061°51'1 1.6
2018-Mar-09 19:30N 17°08' W 061°52'1 1.6
2018-Mar-09 19:00N 17°07' W 061°51'0 0.0
2018-Mar-09 18:30N 17°07' W 061°51'0 0.0
2018-Mar-09 18:00N 17°07' W 061°51'0 0.0
2018-Mar-09 17:30N 17°07' W 061°51'0 0.0
2018-Mar-09 17:00N 17°07' W 061°51'0 0.0
2018-Mar-09 16:30N 17°07' W 061°51'0 0.0
2018-Mar-09 14:04N 17°07' W 061°51'0 0.1
2018-Mar-09 14:00N 17°07' W 061°51'0 0.0
2018-Mar-09 13:30N 17°07' W 061°51'0 0.0
2018-Mar-09 13:00N 17°07' W 061°51'0 0.0
2018-Mar-09 12:30N 17°07' W 061°51'0 0.0
2018-Mar-09 12:00N 17°07' W 061°51'0 0.0
2018-Mar-09 11:30N 17°07' W 061°51'0 0.0
2018-Mar-07 19:50N 17°07' W 061°51'0 0.0
2018-Mar-07 19:27N 17°07' W 061°51'0 0.0
2018-Mar-07 19:00N 17°07' W 061°51'0 0.0
2018-Mar-07 18:31N 17°07' W 061°51'0 0.0
2018-Mar-07 18:00N 17°07' W 061°51'0 0.0
2018-Mar-07 17:30N 17°07' W 061°51'0 0.0
2018-Mar-07 17:00N 17°07' W 061°51'0 0.0
2018-Mar-07 16:29N 17°07' W 061°51'0 0.0
2018-Mar-07 16:00N 17°07' W 061°51'0 0.0
2018-Mar-07 15:30N 17°07' W 061°51'0 0.0
2018-Mar-07 15:00N 17°07' W 061°51'0 0.0
2018-Mar-07 14:30N 17°07' W 061°51'0 0.0
2018-Mar-07 14:00N 17°07' W 061°51'0 0.0
2018-Mar-07 13:31N 17°07' W 061°51'0 0.0
2018-Mar-07 13:00N 17°07' W 061°51'0 0.0
2018-Mar-07 12:30N 17°07' W 061°51'0 0.0
2018-Mar-07 12:00N 17°07' W 061°51'0 0.0
2018-Mar-07 11:29N 17°07' W 061°51'0 0.0
2018-Mar-06 19:54N 17°07' W 061°51'0 0.0
2018-Mar-06 19:30N 17°07' W 061°51'0 0.0
2018-Mar-06 19:00N 17°07' W 061°51'0 0.0
2018-Mar-06 18:30N 17°07' W 061°51'0 0.0
2018-Mar-06 18:00N 17°07' W 061°51'0 0.0
2018-Mar-06 17:30N 17°07' W 061°51'0 0.0
2018-Mar-06 17:00N 17°07' W 061°51'0 0.0
2018-Mar-06 16:30N 17°07' W 061°51'0 0.0
2018-Mar-06 16:00N 17°07' W 061°51'0 0.0
2018-Mar-06 15:30N 17°07' W 061°51'0 0.0
2018-Mar-06 14:58N 17°07' W 061°51'0 0.0
2018-Mar-06 14:30N 17°07' W 061°51'0 0.0
2018-Mar-06 14:00N 17°07' W 061°51'0 0.0
2018-Mar-06 13:30N 17°07' W 061°51'0 0.0
2018-Mar-06 13:00N 17°07' W 061°51'0 0.0
2018-Mar-06 12:30N 17°07' W 061°51'0 0.0
2018-Mar-06 11:59N 17°07' W 061°51'0 0.0
2018-Mar-06 11:30N 17°07' W 061°51'0 0.0
2018-Mar-05 19:38N 17°07' W 061°51'0 0.0
2018-Mar-05 19:30N 17°07' W 061°51'0 0.0
2018-Mar-05 19:00N 17°07' W 061°51'0 0.0
2018-Mar-05 18:31N 17°07' W 061°51'0 0.0
2018-Mar-05 18:00N 17°07' W 061°51'0 0.0
2018-Mar-05 17:30N 17°07' W 061°51'0 0.0
2018-Mar-05 17:00N 17°07' W 061°51'0 0.0
2018-Mar-05 16:30N 17°07' W 061°51'0 0.0
2018-Mar-05 16:01N 17°07' W 061°51'0 0.0
2018-Mar-05 15:31N 17°07' W 061°51'0 0.0
2018-Mar-05 15:01N 17°07' W 061°51'0 0.0
2018-Mar-05 14:30N 17°07' W 061°51'0 0.0
2018-Mar-05 14:01N 17°07' W 061°51'0 0.0
2018-Mar-05 13:30N 17°07' W 061°51'0 0.0
2018-Mar-05 13:01N 17°07' W 061°51'0 0.0
2018-Mar-05 12:30N 17°07' W 061°51'0 0.0
2018-Mar-05 12:00N 17°07' W 061°51'0 0.0
2018-Mar-05 11:30N 17°07' W 061°51'0 0.0
2018-Mar-04 16:12N 17°07' W 061°51'0 0.0
2018-Mar-04 16:00N 17°07' W 061°51'0 0.0
2018-Mar-04 15:30N 17°07' W 061°51'0 0.0
2018-Mar-04 14:58N 17°07' W 061°51'0 0.0
2018-Mar-04 14:30N 17°07' W 061°51'0 0.0
2018-Mar-04 14:00N 17°07' W 061°51'0 0.0
2018-Mar-04 13:30N 17°07' W 061°51'0 0.0
2018-Mar-04 13:00N 17°07' W 061°51'0 0.0
2018-Mar-04 12:30N 17°07' W 061°51'0 0.0
2018-Mar-04 12:00N 17°07' W 061°51'  
Track history (hours):
 
Tides and Currents Weather Stations Pressure Air Temp Water Temp Dewpoint Dewpoint Depression Visibility Wind Speed Wind Dir Waves Ship Positions

Nan

Last reported at 2018-Mar-14 05:38 UTC. Time now 2018-May-20 15:40 UTC.
Position N 17°53' W 063°25'.
Warning: this ship's position is months out of date.

Length 26 m; draft 9 m.

Type: Tug. MMSI: 341223000.

Date/timePositionNaut miles runAvg speedWind from/ knotsBaromVisibWave heightAir tempDewpointWater temp
2018-Mar-14 05:38N 17°53' W 063°25'2 8.7
2018-Mar-14 05:24N 17°52' W 063°23'4 8.8
2018-Mar-14 04:59N 17°50' W 063°20'5 8.8
2018-Mar-14 04:23N 17°48' W 063°15'3 8.7
2018-Mar-14 04:00N 17°47' W 063°12'5 8.7
2018-Mar-14 03:27N 17°44' W 063°07'4 8.5
2018-Mar-14 02:57N 17°42' W 063°03'4 8.7
2018-Mar-14 02:27N 17°40' W 062°59'15 8.6
2018-Mar-14 00:44N 17°34' W 062°45'2 8.7
2018-Mar-14 00:30N 17°33' W 062°44'21 8.5
2018-Mar-13 22:02N 17°23' W 062°24'1 8.4
2018-Mar-13 21:57N 17°23' W 062°23'4 8.4
2018-Mar-13 21:30N 17°21' W 062°20'4 8.4
2018-Mar-13 21:00N 17°19' W 062°16'4 8.6
2018-Mar-13 20:30N 17°17' W 062°12'4 8.6
2018-Mar-13 20:01N 17°15' W 062°08'4 8.8
2018-Mar-13 19:30N 17°13' W 062°04'4 8.8
2018-Mar-13 19:01N 17°11' W 061°60'4 8.8
2018-Mar-13 18:31N 17°09' W 061°56'4 8.3
2018-Mar-13 18:00N 17°08' W 061°52'1 1.2
2018-Mar-13 17:29N 17°07' W 061°51'0 0.0
2018-Mar-13 17:00N 17°07' W 061°51'0 0.0
2018-Mar-13 16:30N 17°07' W 061°51'0 0.0
2018-Mar-13 16:00N 17°07' W 061°51'0 0.0
2018-Mar-13 15:30N 17°07' W 061°51'0 0.0
2018-Mar-13 15:00N 17°07' W 061°51'0 0.0
2018-Mar-13 14:30N 17°07' W 061°51'0 0.0
2018-Mar-13 14:00N 17°07' W 061°51'0 0.0
2018-Mar-13 13:30N 17°07' W 061°51'0 0.0
2018-Mar-13 13:00N 17°07' W 061°51'0 0.0
2018-Mar-13 12:30N 17°07' W 061°51'0 0.0
2018-Mar-13 12:00N 17°07' W 061°51'0 0.0
2018-Mar-13 11:30N 17°07' W 061°51'0 0.0
2018-Mar-12 19:52N 17°07' W 061°51'0 0.0
2018-Mar-12 19:30N 17°07' W 061°51'0 0.0
2018-Mar-12 19:00N 17°07' W 061°51'0 0.0
2018-Mar-12 18:30N 17°07' W 061°51'0 0.0
2018-Mar-12 18:00N 17°07' W 061°51'0 0.0
2018-Mar-12 17:30N 17°07' W 061°51'0 0.0
2018-Mar-12 17:00N 17°07' W 061°51'0 0.0
2018-Mar-12 16:28N 17°07' W 061°51'0 0.0
2018-Mar-12 16:00N 17°07' W 061°51'0 0.0
2018-Mar-12 15:29N 17°07' W 061°51'0 0.0
2018-Mar-12 15:00N 17°07' W 061°51'0 0.0
2018-Mar-12 14:30N 17°07' W 061°51'0 0.0
2018-Mar-12 14:00N 17°07' W 061°51'0 0.0
2018-Mar-12 13:30N 17°07' W 061°51'0 0.0
2018-Mar-12 13:00N 17°07' W 061°51'0 0.0
2018-Mar-12 12:30N 17°07' W 061°51'1 1.8
2018-Mar-12 12:00N 17°08' W 061°52'1 1.8
2018-Mar-12 11:30N 17°07' W 061°51'0 0.0
2018-Mar-10 15:28N 17°07' W 061°51'0 0.0
2018-Mar-10 15:00N 17°07' W 061°51'0 0.0
2018-Mar-10 14:30N 17°07' W 061°51'0 0.0
2018-Mar-10 14:00N 17°07' W 061°51'0 0.0
2018-Mar-10 13:30N 17°07' W 061°51'0 0.0
2018-Mar-10 13:00N 17°07' W 061°51'0 0.0
2018-Mar-09 20:02N 17°07' W 061°51'0 0.0
2018-Mar-09 20:00N 17°07' W 061°51'1 1.6
2018-Mar-09 19:30N 17°08' W 061°52'1 1.6
2018-Mar-09 19:00N 17°07' W 061°51'0 0.0
2018-Mar-09 18:30N 17°07' W 061°51'0 0.0
2018-Mar-09 18:00N 17°07' W 061°51'0 0.0
2018-Mar-09 17:30N 17°07' W 061°51'0 0.0
2018-Mar-09 17:00N 17°07' W 061°51'0 0.0
2018-Mar-09 16:30N 17°07' W 061°51'0 0.0
2018-Mar-09 14:04N 17°07' W 061°51'0 0.1
2018-Mar-09 14:00N 17°07' W 061°51'0 0.0
2018-Mar-09 13:30N 17°07' W 061°51'0 0.0
2018-Mar-09 13:00N 17°07' W 061°51'0 0.0
2018-Mar-09 12:30N 17°07' W 061°51'0 0.0
2018-Mar-09 12:00N 17°07' W 061°51'0 0.0
2018-Mar-09 11:30N 17°07' W 061°51'0 0.0
2018-Mar-07 19:50N 17°07' W 061°51'0 0.0
2018-Mar-07 19:27N 17°07' W 061°51'0 0.0
2018-Mar-07 19:00N 17°07' W 061°51'0 0.0
2018-Mar-07 18:31N 17°07' W 061°51'0 0.0
2018-Mar-07 18:00N 17°07' W 061°51'0 0.0
2018-Mar-07 17:30N 17°07' W 061°51'0 0.0
2018-Mar-07 17:00N 17°07' W 061°51'0 0.0
2018-Mar-07 16:29N 17°07' W 061°51'0 0.0
2018-Mar-07 16:00N 17°07' W 061°51'0 0.0
2018-Mar-07 15:30N 17°07' W 061°51'0 0.0
2018-Mar-07 15:00N 17°07' W 061°51'0 0.0
2018-Mar-07 14:30N 17°07' W 061°51'0 0.0
2018-Mar-07 14:00N 17°07' W 061°51'0 0.0
2018-Mar-07 13:31N 17°07' W 061°51'0 0.0
2018-Mar-07 13:00N 17°07' W 061°51'0 0.0
2018-Mar-07 12:30N 17°07' W 061°51'0 0.0
2018-Mar-07 12:00N 17°07' W 061°51'0 0.0
2018-Mar-07 11:29N 17°07' W 061°51'0 0.0
2018-Mar-06 19:54N 17°07' W 061°51'0 0.0
2018-Mar-06 19:30N 17°07' W 061°51'0 0.0
2018-Mar-06 19:00N 17°07' W 061°51'0 0.0
2018-Mar-06 18:30N 17°07' W 061°51'0 0.0
2018-Mar-06 18:00N 17°07' W 061°51'0 0.0
2018-Mar-06 17:30N 17°07' W 061°51'0 0.0
2018-Mar-06 17:00N 17°07' W 061°51'0 0.0
2018-Mar-06 16:30N 17°07' W 061°51'0 0.0
2018-Mar-06 16:00N 17°07' W 061°51'0 0.0
2018-Mar-06 15:30N 17°07' W 061°51'0 0.0
2018-Mar-06 14:58N 17°07' W 061°51'0 0.0
2018-Mar-06 14:30N 17°07' W 061°51'0 0.0
2018-Mar-06 14:00N 17°07' W 061°51'0 0.0
2018-Mar-06 13:30N 17°07' W 061°51'0 0.0
2018-Mar-06 13:00N 17°07' W 061°51'0 0.0
2018-Mar-06 12:30N 17°07' W 061°51'0 0.0
2018-Mar-06 11:59N 17°07' W 061°51'0 0.0
2018-Mar-06 11:30N 17°07' W 061°51'0 0.0
2018-Mar-05 19:38N 17°07' W 061°51'0 0.0
2018-Mar-05 19:30N 17°07' W 061°51'0 0.0
2018-Mar-05 19:00N 17°07' W 061°51'0 0.0
2018-Mar-05 18:31N 17°07' W 061°51'0 0.0
2018-Mar-05 18:00N 17°07' W 061°51'0 0.0
2018-Mar-05 17:30N 17°07' W 061°51'0 0.0
2018-Mar-05 17:00N 17°07' W 061°51'0 0.0
2018-Mar-05 16:30N 17°07' W 061°51'0 0.0
2018-Mar-05 16:01N 17°07' W 061°51'0 0.0
2018-Mar-05 15:31N 17°07' W 061°51'0 0.0
2018-Mar-05 15:01N 17°07' W 061°51'0 0.0
2018-Mar-05 14:30N 17°07' W 061°51'0 0.0
2018-Mar-05 14:01N 17°07' W 061°51'0 0.0
2018-Mar-05 13:30N 17°07' W 061°51'0 0.0
2018-Mar-05 13:01N 17°07' W 061°51'0 0.0
2018-Mar-05 12:30N 17°07' W 061°51'0 0.0
2018-Mar-05 12:00N 17°07' W 061°51'0 0.0
2018-Mar-05 11:30N 17°07' W 061°51'0 0.0
2018-Mar-04 16:12N 17°07' W 061°51'0 0.0
2018-Mar-04 16:00N 17°07' W 061°51'0 0.0
2018-Mar-04 15:30N 17°07' W 061°51'0 0.0
2018-Mar-04 14:58N 17°07' W 061°51'0 0.0
2018-Mar-04 14:30N 17°07' W 061°51'0 0.0
2018-Mar-04 14:00N 17°07' W 061°51'0 0.0
2018-Mar-04 13:30N 17°07' W 061°51'0 0.0
2018-Mar-04 13:00N 17°07' W 061°51'0 0.0
2018-Mar-04 12:30N 17°07' W 061°51'0 0.0
2018-Mar-04 12:00N 17°07' W 061°51'  

Dump ship's entire track history